Time;durP1;ratioP1;P1;durP2;ratioP2;P2;SDS_P1;SDS_P2;PMS_P1;PMS_P2;Temp;Humidity;BMP_temperature;BMP_pressure;BME280_temperature;BME280_humidity;BME280_pressure;Samples;Min_cycle;Max_cycle;Signal;HPM_P1;HPM_P2
2022/11/26 00:00:47;;;;;;;55.85;28.85;;;;;;;-0.25;86.93;100764.44;2219691;79;21025;-79
2022/11/26 00:03:50;;;;;;;59.90;30.40;;;;;;;-0.26;86.77;100765.34;2221848;79;21045;-80
2022/11/26 00:06:51;;;;;;;55.63;27.40;;;;;;;-0.32;86.58;100761.28;2219633;79;21045;-79
2022/11/26 00:09:54;;;;;;;50.67;27.70;;;;;;;-0.34;86.53;100764.89;2220744;79;21038;-79
2022/11/26 00:12:57;;;;;;;53.00;28.90;;;;;;;-0.34;86.63;100760.98;2215929;79;21523;-79
2022/11/26 00:15:58;;;;;;;54.70;28.35;;;;;;;-0.33;86.78;100761.38;2223540;79;20970;-80
2022/11/26 00:18:59;;;;;;;46.75;26.52;;;;;;;-0.28;86.97;100760.69;2185059;79;20996;-79
2022/11/26 00:22:00;;;;;;;47.38;25.92;;;;;;;-0.26;86.94;100759.65;2213967;79;21023;-80
2022/11/26 00:25:01;;;;;;;50.23;26.40;;;;;;;-0.21;87.10;100762.02;2222916;79;20922;-79
2022/11/26 00:28:02;;;;;;;44.77;26.52;;;;;;;-0.14;87.16;100769.05;2213951;79;20979;-82
2022/11/26 00:31:09;;;;;;;48.73;26.73;;;;;;;-0.06;87.32;100771.66;2188299;79;22235;-79
2022/11/26 00:34:09;;;;;;;50.67;27.20;;;;;;;-0.02;87.18;100775.77;2163468;81;21027;-79
2022/11/26 00:37:28;;;;;;;47.48;26.15;;;;;;;0.04;87.25;100769.84;2172616;81;21698;-80
2022/11/26 00:40:32;;;;;;;43.80;26.07;;;;;;;0.10;87.29;100771.64;2169316;81;21028;-80
2022/11/26 00:43:33;;;;;;;43.25;26.12;;;;;;;0.18;87.41;100775.15;2168394;81;21089;-79
2022/11/26 00:46:34;;;;;;;52.00;26.82;;;;;;;0.27;87.44;100780.32;2172894;81;20973;-79
2022/11/26 00:49:36;;;;;;;52.27;26.17;;;;;;;0.36;87.52;100785.86;2169940;81;21479;-81
2022/11/26 00:52:37;;;;;;;47.58;25.45;;;;;;;0.41;87.22;100789.06;2141708;82;21116;-79
2022/11/26 00:55:41;;;;;;;50.75;26.65;;;;;;;0.39;87.07;100775.72;2166710;81;21034;-79
2022/11/26 00:58:43;;;;;;;47.83;26.57;;;;;;;0.41;87.24;100785.15;2167015;81;21010;-81
2022/11/26 01:01:44;;;;;;;46.20;25.45;;;;;;;0.49;87.38;100783.89;2168258;81;21096;-79
2022/11/26 01:04:48;;;;;;;47.58;24.90;;;;;;;0.52;87.31;100782.41;2171853;81;20996;-79
2022/11/26 01:07:52;;;;;;;41.65;25.62;;;;;;;0.54;87.40;100780.09;2168036;81;21471;-80
2022/11/26 01:10:54;;;;;;;45.78;24.65;;;;;;;0.60;87.54;100791.50;2168651;81;21365;-80
2022/11/26 01:13:55;;;;;;;46.10;25.43;;;;;;;0.65;87.52;100789.94;2165157;81;21046;-79
2022/11/26 01:16:56;;;;;;;45.75;24.18;;;;;;;0.67;87.52;100791.98;2173702;81;21052;-80
2022/11/26 01:19:57;;;;;;;41.20;23.77;;;;;;;0.73;87.58;100784.26;2172469;81;21336;-79
2022/11/26 01:22:58;;;;;;;41.02;23.60;;;;;;;0.76;87.55;100781.03;2167340;81;21003;-80
2022/11/26 01:25:59;;;;;;;42.60;23.40;;;;;;;0.77;87.55;100789.23;2131729;82;21048;-80
2022/11/26 01:29:00;;;;;;;43.55;22.93;;;;;;;0.86;87.81;100788.70;2171684;81;21108;-80
2022/11/26 01:32:02;;;;;;;41.37;24.43;;;;;;;0.96;87.88;100796.00;2169118;81;21087;-80
2022/11/26 01:35:03;;;;;;;50.73;25.12;;;;;;;1.05;87.96;100796.33;2192181;80;21033;-80
2022/11/26 01:38:04;;;;;;;47.78;23.25;;;;;;;1.15;88.02;100792.70;2166114;82;21522;-80
2022/11/26 01:41:26;;;;;;;47.90;26.25;;;;;;;1.20;87.96;100795.89;2158120;82;21065;-80
2022/11/26 01:44:31;;;;;;;49.55;26.70;;;;;;;1.23;87.91;100794.40;2187179;79;21096;-80
2022/11/26 01:47:32;;;;;;;49.15;25.68;;;;;;;1.26;87.81;100798.14;2192853;79;21049;-80
2022/11/26 01:50:39;;;;;;;45.30;24.40;;;;;;;1.28;87.77;100796.75;2183306;79;20995;-80
2022/11/26 01:53:57;;;;;;;40.70;23.12;;;;;;;1.29;87.75;100800.56;2196655;79;21063;-85
2022/11/26 01:57:17;;;;;;;47.30;24.60;;;;;;;1.33;87.89;100801.25;2187935;79;21021;-80
2022/11/26 02:00:18;;;;;;;40.25;23.60;;;;;;;1.42;88.12;100795.46;2193562;80;21060;-80
2022/11/26 02:03:19;;;;;;;40.83;22.73;;;;;;;1.47;88.05;100792.11;2190518;80;21048;-79
2022/11/26 02:06:25;;;;;;;37.55;22.17;;;;;;;1.51;88.12;100791.45;2155726;82;21049;-80
2022/11/26 02:09:27;;;;;;;38.67;22.82;;;;;;;1.52;88.08;100792.69;2178198;81;21504;-80
2022/11/26 02:12:29;;;;;;;41.53;22.25;;;;;;;1.52;88.06;100798.36;2218593;79;21073;-84
2022/11/26 02:15:35;;;;;;;35.20;20.90;;;;;;;1.49;88.15;100791.56;2195558;80;20999;-81
2022/11/26 02:18:45;;;;;;;36.08;22.15;;;;;;;1.50;88.11;100805.48;2184809;80;21120;-80
2022/11/26 02:21:51;;;;;;;36.20;21.07;;;;;;;1.51;88.29;100807.98;2190923;80;21013;-81
2022/11/26 02:25:38;;;;;;;35.13;19.82;;;;;;;1.57;88.40;100812.00;2197123;80;21457;-81
2022/11/26 02:29:02;;;;;;;33.83;19.45;;;;;;;1.64;88.53;100815.95;2175005;80;21883;-82
2022/11/26 02:32:08;;;;;;;31.50;20.05;;;;;;;1.64;88.31;100813.34;2176162;81;21134;-81
2022/11/26 02:35:24;;;;;;;32.67;20.32;;;;;;;1.63;88.49;100811.62;2163062;81;21568;-81
2022/11/26 02:38:31;;;;;;;40.20;20.88;;;;;;;1.73;88.80;100814.08;2174057;81;21534;-80
2022/11/26 02:41:32;;;;;;;31.68;20.08;;;;;;;1.80;88.84;100811.91;2173490;81;21173;-81
2022/11/26 02:44:40;;;;;;;34.55;20.15;;;;;;;1.89;88.89;100817.09;2170491;81;21045;-80
2022/11/26 02:47:46;;;;;;;32.70;19.48;;;;;;;1.95;89.00;100816.70;2194636;80;21065;-83
2022/11/26 02:50:52;;;;;;;37.38;19.92;;;;;;;2.04;89.05;100818.75;2192225;80;21023;-79
2022/11/26 02:53:55;;;;;;;35.28;20.17;;;;;;;2.11;89.06;100818.75;2191223;80;21100;-79
2022/11/26 02:56:59;;;;;;;42.53;21.80;;;;;;;2.15;88.91;100823.32;2195494;80;20965;-79
2022/11/26 03:00:00;;;;;;;36.25;21.23;;;;;;;2.21;88.95;100821.16;2191639;80;21582;-79
2022/11/26 03:03:21;;;;;;;33.58;19.30;;;;;;;2.27;88.91;100818.62;2193191;80;21009;-83
2022/11/26 03:06:17;;;;;;;38.42;20.75;;;;;;;2.32;88.91;100822.27;2191062;80;21003;-79
2022/11/26 03:09:22;;;;;;;34.35;20.97;;;;;;;2.35;88.84;100820.77;2193383;80;21509;-79
2022/11/26 03:12:23;;;;;;;39.25;22.42;;;;;;;2.37;88.85;100821.04;2194964;80;21020;-79
2022/11/26 03:15:26;;;;;;;39.67;22.60;;;;;;;2.38;88.81;100820.56;2195015;80;21061;-79
2022/11/26 03:18:27;;;;;;;35.40;22.00;;;;;;;2.42;88.96;100829.45;2191474;80;21042;-79
2022/11/26 03:21:28;;;;;;;38.58;21.97;;;;;;;2.42;88.76;100837.31;2188692;80;21525;-79
2022/11/26 03:24:31;;;;;;;42.23;23.62;;;;;;;2.44;88.86;100833.27;2181053;80;21055;-80
2022/11/26 03:27:32;;;;;;;40.73;23.57;;;;;;;2.49;88.96;100836.44;2191163;80;21053;-79
2022/11/26 03:30:33;;;;;;;40.35;23.83;;;;;;;2.51;88.98;100842.44;2185205;80;20975;-80
2022/11/26 03:33:34;;;;;;;41.55;23.45;;;;;;;2.56;89.02;100839.06;2197499;80;21106;-78
2022/11/26 03:36:35;;;;;;;36.85;22.35;;;;;;;2.68;88.98;100844.81;2175989;81;21513;-79
2022/11/26 03:39:36;;;;;;;36.15;22.80;;;;;;;2.68;88.98;100844.81;2192359;80;21036;-79
2022/11/26 03:42:37;;;;;;;35.78;22.45;;;;;;;2.71;89.09;100845.09;2192367;80;20991;-79
2022/11/26 03:45:38;;;;;;;39.20;23.42;;;;;;;2.76;89.10;100853.95;2189152;80;21089;-82
2022/11/26 03:48:39;;;;;;;40.92;23.92;;;;;;;2.78;89.02;100845.53;2194345;80;20989;-79
2022/11/26 03:51:40;;;;;;;42.50;22.65;;;;;;;2.79;88.96;100851.99;2163584;81;21036;-79
2022/11/26 03:54:41;;;;;;;39.67;23.35;;;;;;;2.83;88.97;100851.32;2193738;80;21446;-79
2022/11/26 03:57:43;;;;;;;38.75;22.55;;;;;;;2.80;88.90;100849.73;2194950;80;21054;-79
2022/11/26 04:00:44;;;;;;;40.80;23.25;;;;;;;2.82;89.01;100847.86;2196250;79;20934;-79
2022/11/26 04:03:45;;;;;;;40.70;23.25;;;;;;;2.85;89.03;100850.76;2195369;80;21045;-79
2022/11/26 04:06:46;;;;;;;38.55;23.22;;;;;;;2.87;89.15;100850.17;2162390;81;21119;-78
2022/11/26 04:09:47;;;;;;;40.75;23.80;;;;;;;2.90;89.24;100854.77;2207847;79;21034;-79
2022/11/26 04:12:48;;;;;;;41.23;23.05;;;;;;;2.94;89.21;100855.39;2173160;81;20983;-80
2022/11/26 04:15:50;;;;;;;43.25;24.50;;;;;;;2.98;89.15;100853.41;2174561;80;21109;-78
2022/11/26 04:18:51;;;;;;;38.60;22.40;;;;;;;3.02;89.30;100857.05;2178120;80;21630;-79
2022/11/26 04:21:52;;;;;;;38.67;24.00;;;;;;;3.08;89.35;100857.95;2212901;80;21032;-79
2022/11/26 04:24:53;;;;;;;42.43;23.32;;;;;;;3.13;89.32;100866.37;2193186;80;20993;-78
2022/11/26 04:27:55;;;;;;;40.78;23.35;;;;;;;3.13;89.15;100862.44;2172253;81;21028;-78
2022/11/26 04:30:56;;;;;;;37.60;23.10;;;;;;;3.16;89.26;100864.49;2192128;80;21074;-79
2022/11/26 04:33:57;;;;;;;38.28;23.45;;;;;;;3.12;88.93;100867.29;2195132;80;21167;-78
2022/11/26 04:36:58;;;;;;;40.60;22.67;;;;;;;3.13;89.13;100872.09;2198363;80;20965;-79
2022/11/26 04:39:59;;;;;;;42.70;23.73;;;;;;;3.16;89.26;100867.11;2195767;80;21492;-79
2022/11/26 04:43:01;;;;;;;44.23;25.90;;;;;;;3.18;89.30;100863.90;2165626;80;21005;-74
2022/11/26 04:46:01;;;;;;;41.45;24.37;;;;;;;3.23;89.46;100873.63;2192826;80;21033;-76
2022/11/26 04:49:03;;;;;;;46.55;25.32;;;;;;;3.27;89.45;100877.27;2194707;80;21469;-76
2022/11/26 04:52:05;;;;;;;45.88;24.87;;;;;;;3.28;89.38;100872.38;2197304;80;20973;-77
2022/11/26 04:55:20;;;;;;;44.73;25.82;;;;;;;3.31;89.36;100879.20;2166968;80;21025;-77
2022/11/26 05:02:26;;;;;;;44.58;26.10;;;;;;;3.33;89.47;100896.53;2172724;81;21917;-76
2022/11/26 05:05:27;;;;;;;42.88;25.40;;;;;;;3.30;89.46;100890.66;2216188;79;21035;-79
2022/11/26 05:08:28;;;;;;;45.43;25.40;;;;;;;3.32;89.63;100893.55;2213605;79;21037;-76
2022/11/26 05:11:31;;;;;;;42.13;24.65;;;;;;;3.36;89.71;100897.63;2177494;81;21074;-77
2022/11/26 05:14:32;;;;;;;47.13;27.35;;;;;;;3.40;89.86;100895.64;2180118;81;20924;-77
2022/11/26 05:17:33;;;;;;;46.45;26.27;;;;;;;3.40;89.83;100900.89;2180946;81;20982;-77
2022/11/26 05:20:41;;;;;;;48.08;26.20;;;;;;;3.35;89.76;100902.97;2178403;81;21441;-77
2022/11/26 05:23:42;;;;;;;46.65;24.82;;;;;;;3.34;89.92;100907.38;2182739;81;21024;-79
2022/11/26 05:26:43;;;;;;;45.17;27.77;;;;;;;3.39;90.03;100910.19;2176098;81;21081;-76
2022/11/26 05:29:44;;;;;;;46.77;26.05;;;;;;;3.44;90.04;100908.11;2171534;81;21027;-77
2022/11/26 05:32:45;;;;;;;47.50;26.77;;;;;;;3.42;89.97;100904.73;2179706;81;20980;-78
2022/11/26 05:35:46;;;;;;;47.27;26.80;;;;;;;3.49;90.12;100910.80;2152304;81;21089;-77
2022/11/26 05:38:47;;;;;;;47.08;25.72;;;;;;;3.52;90.07;100913.21;2176688;81;21052;-77
2022/11/26 05:41:48;;;;;;;45.70;26.90;;;;;;;3.51;90.06;100920.70;2180325;81;21009;-77
2022/11/26 05:44:49;;;;;;;48.63;27.27;;;;;;;3.57;90.12;100918.13;2174157;81;21021;-77
2022/11/26 05:47:50;;;;;;;43.05;25.82;;;;;;;3.61;90.13;100922.73;2177008;81;21073;-78
2022/11/26 05:50:57;;;;;;;48.80;27.00;;;;;;;3.62;90.22;100930.48;2179969;81;21038;-77
2022/11/26 05:53:58;;;;;;;44.20;26.27;;;;;;;3.66;90.17;100935.05;2162901;80;21091;-79
2022/11/26 05:56:59;;;;;;;49.88;26.55;;;;;;;3.67;90.24;100925.78;2192825;80;21075;-77
2022/11/26 06:00:00;;;;;;;45.48;27.87;;;;;;;3.71;90.31;100934.28;2197491;80;21029;-77
2022/11/26 06:03:01;;;;;;;46.50;27.80;;;;;;;3.76;90.40;100933.03;2191689;80;21583;-78
2022/11/26 06:06:03;;;;;;;47.33;25.62;;;;;;;3.79;90.33;100934.61;2187147;80;21073;-81
2022/11/26 06:09:04;;;;;;;47.27;26.75;;;;;;;3.84;90.46;100940.39;2192916;80;21042;-77
2022/11/26 06:12:06;;;;;;;47.00;26.62;;;;;;;3.88;90.38;100945.80;2198068;80;21022;-78
2022/11/26 06:15:08;;;;;;;45.43;25.90;;;;;;;3.92;90.37;100951.22;2196860;80;21040;-77
2022/11/26 06:18:09;;;;;;;41.08;24.63;;;;;;;3.94;90.31;100950.66;2176971;80;20989;-78
2022/11/26 06:21:10;;;;;;;49.20;27.70;;;;;;;3.97;90.33;100952.20;2197348;80;21488;-77
2022/11/26 06:24:14;;;;;;;49.67;27.98;;;;;;;4.00;90.41;100952.03;2197280;80;21056;-77
2022/11/26 06:27:15;;;;;;;49.90;28.42;;;;;;;4.06;90.50;100959.48;2195369;80;21067;-77
2022/11/26 06:30:16;;;;;;;50.23;27.48;;;;;;;4.10;90.42;100960.11;2180999;79;21049;-79
2022/11/26 06:33:17;;;;;;;54.48;28.67;;;;;;;4.14;90.39;100961.56;2194145;79;20991;-77
2022/11/26 06:36:18;;;;;;;48.65;28.20;;;;;;;4.17;90.32;100974.52;2221514;79;21089;-79
2022/11/26 06:39:19;;;;;;;42.48;24.25;;;;;;;4.20;90.35;100970.37;2176760;81;21052;-78
2022/11/26 06:42:20;;;;;;;45.08;25.08;;;;;;;4.12;90.08;100971.36;2192294;80;21045;-78
2022/11/26 06:45:22;;;;;;;40.58;24.65;;;;;;;4.07;90.17;100981.33;2192486;80;21538;-77
2022/11/26 06:48:24;;;;;;;45.40;24.85;;;;;;;4.06;90.31;100978.34;2190666;80;21024;-79
2022/11/26 06:51:26;;;;;;;44.13;24.80;;;;;;;4.03;90.38;100984.16;2198322;80;21026;-78
2022/11/26 06:54:27;;;;;;;41.10;23.30;;;;;;;4.03;90.51;100989.42;2197252;80;21073;-77
2022/11/26 06:57:28;;;;;;;42.88;24.85;;;;;;;4.06;90.76;100994.11;2192889;80;21561;-78
2022/11/26 07:00:29;;;;;;;37.17;22.85;;;;;;;4.07;90.68;100997.09;2199654;80;21046;-77
2022/11/26 07:03:30;;;;;;;43.23;24.70;;;;;;;4.09;90.78;100997.84;2186509;80;22274;-78
2022/11/26 07:06:34;;;;;;;36.08;21.68;;;;;;;4.10;90.79;101001.66;2200422;80;20985;-78
2022/11/26 07:09:35;;;;;;;37.55;21.30;;;;;;;4.13;91.03;101009.33;2198085;80;21045;-78
2022/11/26 07:12:36;;;;;;;37.03;22.42;;;;;;;4.19;91.19;101014.64;2197462;80;21058;-78
2022/11/26 07:15:37;;;;;;;38.53;23.50;;;;;;;4.20;91.19;101015.02;2187482;80;21002;-79
2022/11/26 07:18:38;;;;;;;36.95;22.35;;;;;;;4.16;91.17;101022.25;2193979;80;21075;-77
2022/11/26 07:21:39;;;;;;;39.85;23.12;;;;;;;4.17;91.36;101026.58;2193547;80;21045;-78
2022/11/26 07:24:41;;;;;;;38.75;22.55;;;;;;;4.17;91.46;101033.63;2193324;80;21036;-78
2022/11/26 07:27:42;;;;;;;41.55;23.90;;;;;;;4.15;91.61;101032.88;2186331;80;20987;-78
2022/11/26 07:30:43;;;;;;;38.08;23.45;;;;;;;4.16;91.77;101030.61;2193811;80;21127;-78
2022/11/26 07:33:46;;;;;;;42.67;24.12;;;;;;;4.15;92.01;101033.71;2193530;80;21028;-77
2022/11/26 07:36:47;;;;;;;42.58;24.37;;;;;;;4.15;92.02;101042.07;2188541;80;21047;-77
2022/11/26 07:39:48;;;;;;;40.88;24.25;;;;;;;4.15;92.10;101042.07;2191895;80;22279;-77
2022/11/26 07:42:49;;;;;;;43.80;24.82;;;;;;;4.19;92.39;101047.47;2199850;80;21041;-78
2022/11/26 07:45:50;;;;;;;44.27;26.62;;;;;;;4.22;92.54;101040.70;2207466;80;21513;-77
2022/11/26 07:48:53;;;;;;;45.80;27.20;;;;;;;4.27;92.68;101046.48;2183218;80;21103;-78
2022/11/26 07:51:54;;;;;;;45.80;25.62;;;;;;;4.30;92.81;101054.16;2188341;79;21017;-74
2022/11/26 07:54:55;;;;;;;44.33;26.87;;;;;;;4.36;93.05;101048.97;2164171;81;21444;-80
2022/11/26 07:57:56;;;;;;;51.60;28.30;;;;;;;4.41;93.12;101049.50;2195999;80;21048;-82
2022/11/26 08:00:57;;;;;;;50.67;27.27;;;;;;;4.43;93.22;101052.39;2193487;80;21607;-85
2022/11/26 08:04:01;;;;;;;52.33;29.00;;;;;;;4.48;93.35;101060.81;2186118;80;21504;-79
2022/11/26 08:07:02;;;;;;;49.05;26.87;;;;;;;4.53;93.45;101056.53;2192708;80;21516;-83
2022/11/26 08:10:07;;;;;;;49.48;26.75;;;;;;;4.59;93.50;101067.10;2162846;82;21056;-81
2022/11/26 08:13:08;;;;;;;45.30;26.33;;;;;;;4.63;93.60;101076.00;2172694;81;21540;-86
2022/11/26 08:16:09;;;;;;;46.25;26.37;;;;;;;4.70;93.68;101077.28;2193882;80;21072;-83
2022/11/26 08:19:12;;;;;;;42.83;24.82;;;;;;;4.75;93.71;101077.42;2188534;80;21030;-85
2022/11/26 08:22:14;;;;;;;47.27;26.60;;;;;;;4.79;93.70;101081.06;2196177;80;21084;-87
2022/11/26 08:25:15;;;;;;;42.80;24.98;;;;;;;4.82;93.73;101083.47;2195203;80;20978;-78
2022/11/26 08:28:17;;;;;;;45.25;25.20;;;;;;;4.86;93.81;101084.93;2201261;80;21035;-86
2022/11/26 08:31:19;;;;;;;40.80;23.98;;;;;;;4.89;93.79;101092.60;2193060;80;21032;-83
2022/11/26 08:34:20;;;;;;;40.48;22.75;;;;;;;4.92;93.84;101088.44;2200496;80;21009;-84
2022/11/26 08:37:21;;;;;;;42.88;24.90;;;;;;;4.96;93.89;101098.78;2194672;80;21004;-84
2022/11/26 08:40:22;;;;;;;42.58;24.55;;;;;;;4.98;93.93;101095.55;2191736;80;21542;-85
2022/11/26 08:43:23;;;;;;;44.50;23.35;;;;;;;5.01;94.05;101094.02;2191559;80;21028;-85
2022/11/26 08:46:24;;;;;;;40.25;23.83;;;;;;;5.05;94.17;101094.19;2193607;80;21062;-85
2022/11/26 08:49:26;;;;;;;35.52;20.70;;;;;;;5.11;94.27;101098.53;2159862;81;21084;-86
2022/11/26 08:52:27;;;;;;;37.20;20.43;;;;;;;5.19;94.30;101105.06;2169622;80;21052;-85
2022/11/26 08:55:28;;;;;;;32.03;19.90;;;;;;;5.26;94.41;101107.61;2172669;80;21030;-84
2022/11/26 08:58:33;;;;;;;32.48;18.23;;;;;;;5.32;94.38;101113.75;2164243;81;21005;-81
2022/11/26 09:01:34;;;;;;;28.65;18.23;;;;;;;5.33;94.41;101113.66;2196398;80;21050;-83
2022/11/26 09:04:36;;;;;;;27.22;17.52;;;;;;;5.35;94.39;101110.45;2199624;80;21056;-84
2022/11/26 09:07:36;;;;;;;27.77;16.55;;;;;;;5.39;94.52;101118.48;2192638;80;21012;-81
2022/11/26 09:10:37;;;;;;;26.27;17.27;;;;;;;5.45;94.57;101116.36;2175668;81;21059;-82
2022/11/26 09:13:38;;;;;;;26.85;17.67;;;;;;;5.49;94.58;101116.05;2190496;80;21643;-85
2022/11/26 09:16:40;;;;;;;27.37;17.20;;;;;;;5.54;94.62;101120.97;2194360;80;21032;-85
2022/11/26 09:19:41;;;;;;;25.80;16.62;;;;;;;5.57;94.67;101127.33;2168779;80;20923;-78
2022/11/26 09:22:42;;;;;;;26.85;16.60;;;;;;;5.61;94.66;101122.22;2196025;79;21607;-85
2022/11/26 09:25:43;;;;;;;27.40;17.30;;;;;;;5.66;94.75;101129.77;2159283;81;21013;-82
2022/11/26 09:28:44;;;;;;;27.65;17.30;;;;;;;5.68;94.71;101131.34;2195669;80;21029;-80
2022/11/26 09:31:48;;;;;;;25.77;15.85;;;;;;;5.71;94.73;101132.44;2172437;80;21555;-77
2022/11/26 09:34:51;;;;;;;25.20;15.50;;;;;;;5.73;94.72;101134.49;2194424;80;21359;-78
2022/11/26 09:37:53;;;;;;;23.90;14.70;;;;;;;5.72;94.66;101128.87;2165726;82;21963;-78
2022/11/26 09:41:41;;;;;;;25.90;16.27;;;;;;;5.73;94.64;101136.30;2168995;81;20999;-78
2022/11/26 09:45:17;;;;;;;24.40;15.83;;;;;;;5.72;94.65;101132.83;2175708;81;22325;-78
2022/11/26 09:48:23;;;;;;;24.70;16.45;;;;;;;5.72;94.62;101132.83;2176681;81;21021;-78
2022/11/26 09:51:25;;;;;;;31.40;17.67;;;;;;;5.68;94.52;101143.67;2178632;81;21627;-77
2022/11/26 09:54:29;;;;;;;24.90;16.65;;;;;;;5.68;94.64;101141.87;2170528;81;21065;-76
2022/11/26 09:57:41;;;;;;;22.20;13.85;;;;;;;5.67;94.66;101140.20;2175352;81;20997;-76
2022/11/26 10:00:52;;;;;;;17.55;12.35;;;;;;;5.66;94.72;101138.53;2176336;81;20985;-78
2022/11/26 10:03:54;;;;;;;18.87;10.72;;;;;;;5.61;94.68;101149.39;2180959;80;21017;-77
2022/11/26 10:07:20;;;;;;;12.68;9.23;;;;;;;5.57;94.76;101147.91;2177638;81;21029;-78
2022/11/26 10:10:43;;;;;;;12.90;9.60;;;;;;;5.55;94.77;101153.78;2177900;81;21039;-80
2022/11/26 10:14:12;;;;;;;17.05;10.82;;;;;;;5.54;94.92;101151.23;2178897;81;21029;-78
2022/11/26 10:17:42;;;;;;;14.65;10.25;;;;;;;5.45;94.77;101160.63;2171240;80;21117;-78
2022/11/26 10:21:16;;;;;;;17.48;10.13;;;;;;;5.45;94.77;101162.42;2171866;80;21015;-78
2022/11/26 10:24:33;;;;;;;14.75;9.65;;;;;;;5.37;94.51;101164.27;2147882;81;21536;-77
2022/11/26 10:27:34;;;;;;;14.93;9.83;;;;;;;5.35;94.60;101167.48;2169627;81;21100;-79
2022/11/26 10:30:36;;;;;;;15.85;10.55;;;;;;;5.32;94.59;101164.62;2171231;81;21553;-79
2022/11/26 10:33:57;;;;;;;11.80;9.20;;;;;;;5.33;94.62;101169.41;2198486;80;20987;-79
2022/11/26 10:37:01;;;;;;;13.05;9.05;;;;;;;5.34;94.61;101170.59;2171226;81;21767;-79
2022/11/26 10:40:29;;;;;;;13.50;8.73;;;;;;;5.38;94.65;101177.83;2211728;80;21046;-79
2022/11/26 10:43:31;;;;;;;13.50;8.95;;;;;;;5.37;94.50;101179.59;2189857;80;20977;-80
2022/11/26 10:46:34;;;;;;;13.05;9.80;;;;;;;5.36;94.44;101173.13;2186276;80;21070;-78
2022/11/26 10:49:36;;;;;;;13.88;9.95;;;;;;;5.32;94.31;101179.55;2189159;79;21057;-78
2022/11/26 10:52:38;;;;;;;14.70;10.75;;;;;;;5.30;94.29;101175.72;2194913;80;21132;-78
2022/11/26 10:55:42;;;;;;;15.13;9.80;;;;;;;5.30;94.37;101186.25;2197638;80;21036;-78
2022/11/26 10:58:46;;;;;;;15.00;10.40;;;;;;;5.27;94.14;101189.09;2191048;80;21295;-77
2022/11/26 11:01:48;;;;;;;18.62;13.18;;;;;;;5.23;94.16;101198.12;2135581;80;21081;-78
2022/11/26 11:04:56;;;;;;;19.87;14.50;;;;;;;5.13;93.89;101193.98;2176666;81;21290;-78
2022/11/26 11:07:57;;;;;;;19.57;15.15;;;;;;;5.10;93.93;101191.57;2161987;82;21014;-78
2022/11/26 11:11:02;;;;;;;21.95;15.80;;;;;;;5.10;94.15;101187.62;2192058;79;21065;-77
2022/11/26 11:14:03;;;;;;;25.35;16.27;;;;;;;5.10;94.06;101191.57;2183888;79;21040;-77
2022/11/26 11:17:04;;;;;;;24.65;17.02;;;;;;;5.09;94.04;101191.66;2187226;79;21721;-77
2022/11/26 11:20:17;;;;;;;30.77;20.92;;;;;;;5.05;93.94;101204.67;2180517;80;21041;-77
2022/11/26 11:23:26;;;;;;;36.40;23.40;;;;;;;4.99;93.83;101198.52;2187104;81;21025;-76
2022/11/26 11:26:28;;;;;;;36.53;22.85;;;;;;;4.94;93.89;101204.91;2189837;81;21013;-77
2022/11/26 11:29:36;;;;;;;32.73;22.37;;;;;;;4.89;93.90;101206.17;2191036;81;21012;-77
2022/11/26 11:32:40;;;;;;;34.30;21.85;;;;;;;4.87;93.95;101211.55;2167098;81;21085;-77
2022/11/26 11:35:41;;;;;;;35.98;23.62;;;;;;;4.80;93.88;101205.00;2141186;82;21112;-77
2022/11/26 11:38:57;;;;;;;38.48;23.27;;;;;;;4.73;93.92;101222.16;2154737;82;21017;-77
2022/11/26 11:42:02;;;;;;;35.98;23.38;;;;;;;4.67;94.04;101220.78;2130234;82;21038;-77
2022/11/26 11:45:09;;;;;;;37.93;24.57;;;;;;;4.63;94.12;101222.38;2157110;81;21001;-77
2022/11/26 11:48:31;;;;;;;37.20;22.67;;;;;;;4.64;94.18;101218.32;2153751;82;21512;-77
2022/11/26 11:51:42;;;;;;;37.08;22.55;;;;;;;4.70;94.31;101215.76;2152310;82;21013;-77
2022/11/26 11:55:14;;;;;;;37.65;22.93;;;;;;;4.76;94.43;101221.95;2134874;82;21075;-77
2022/11/26 11:58:30;;;;;;;39.27;23.73;;;;;;;4.84;94.46;101226.67;2159384;82;21589;-77
2022/11/26 12:01:48;;;;;;;39.42;23.87;;;;;;;4.89;94.38;101230.67;2153277;82;21089;-76
2022/11/26 12:04:55;;;;;;;34.03;21.57;;;;;;;4.93;94.39;101233.48;2121015;82;21075;-77
2022/11/26 12:08:23;;;;;;;39.25;23.22;;;;;;;4.91;93.97;101239.31;2128076;82;21095;-77
2022/11/26 12:11:45;;;;;;;41.20;25.10;;;;;;;4.88;93.82;101250.05;2131024;82;21045;-77
2022/11/26 12:15:20;;;;;;;40.88;24.37;;;;;;;4.89;93.99;101253.03;2120498;83;21410;-81
2022/11/26 12:18:26;;;;;;;44.73;26.60;;;;;;;4.87;93.97;101247.06;2126626;82;21023;-82
2022/11/26 12:21:42;;;;;;;42.88;24.80;;;;;;;4.92;94.19;101257.25;2126695;83;20978;-81
2022/11/26 12:24:48;;;;;;;37.45;24.80;;;;;;;4.93;94.07;101255.84;2158086;82;21156;-80
2022/11/26 12:28:16;;;;;;;37.17;24.45;;;;;;;4.96;93.98;101251.34;2153679;82;20997;-82
2022/11/26 12:31:31;;;;;;;40.40;24.82;;;;;;;4.96;93.90;101260.54;2116248;84;21377;-81
2022/11/26 12:34:54;;;;;;;39.03;23.07;;;;;;;5.03;93.99;101258.69;2162184;81;21058;-79
2022/11/26 12:38:15;;;;;;;38.48;23.98;;;;;;;5.11;94.01;101245.02;2207922;80;21085;-79
2022/11/26 12:41:22;;;;;;;41.45;25.85;;;;;;;5.16;93.82;101247.72;2190574;80;20975;-79
2022/11/26 12:44:32;;;;;;;39.23;24.72;;;;;;;5.23;93.69;101256.02;2193048;80;21547;-79
2022/11/26 12:47:45;;;;;;;41.18;24.80;;;;;;;5.28;93.75;101256.55;2176727;81;21525;-79
2022/11/26 12:50:54;;;;;;;43.58;24.95;;;;;;;5.29;93.49;101263.49;2176116;81;21069;-79
2022/11/26 12:54:20;;;;;;;42.93;26.65;;;;;;;5.25;93.26;101255.93;2174140;81;21057;-80
2022/11/26 12:57:33;;;;;;;41.63;27.05;;;;;;;5.24;93.22;101260.36;2179190;81;21002;-82
2022/11/26 13:00:35;;;;;;;43.50;27.15;;;;;;;5.23;93.14;101256.50;2178627;81;21021;-76
2022/11/26 13:03:36;;;;;;;45.43;29.00;;;;;;;5.22;93.17;101251.72;2179297;80;21018;-75
2022/11/26 13:07:03;;;;;;;45.38;28.45;;;;;;;5.24;93.21;101251.63;2195628;80;21005;-79
2022/11/26 13:10:36;;;;;;;46.98;28.67;;;;;;;5.27;93.28;101253.56;2165710;80;21080;-80
2022/11/26 13:14:07;;;;;;;51.10;29.32;;;;;;;5.28;93.12;101257.88;2172635;81;21009;-77
2022/11/26 13:17:18;;;;;;;52.67;32.85;;;;;;;5.23;93.02;101270.49;2143381;81;21052;-74
2022/11/26 13:20:44;;;;;;;;;;;;;;;5.15;92.94;101280.69;2148957;81;21000;-76
2022/11/26 13:24:11;;;;;;;51.98;30.10;;;;;;;5.11;93.03;101282.70;2109390;83;20134;-76
2022/11/26 13:27:48;;;;;;;51.00;28.67;;;;;;;5.10;93.13;101280.19;2176825;81;21026;-76
2022/11/26 13:31:42;;;;;;;57.88;32.17;;;;;;;5.10;93.08;101288.08;2157995;81;21502;-75
2022/11/26 13:34:55;;;;;;;52.23;31.27;;;;;;;5.10;93.10;101294.66;2172661;81;21029;-75
2022/11/26 13:38:19;;;;;;;59.13;33.55;;;;;;;5.09;93.11;101303.47;2171648;81;21078;-76
2022/11/26 13:41:41;;;;;;;48.10;30.57;;;;;;;5.08;93.14;101302.64;2191236;80;21055;-75
2022/11/26 13:45:02;;;;;;;52.62;31.97;;;;;;;5.02;92.97;101303.05;2193365;80;21028;-75
2022/11/26 13:48:14;;;;;;;48.23;30.15;;;;;;;4.99;93.04;101315.58;2188782;80;21551;-74
2022/11/26 13:51:36;;;;;;;49.33;29.90;;;;;;;4.96;93.04;101311.35;2191491;80;21069;-76
2022/11/26 13:54:58;;;;;;;59.93;34.70;;;;;;;4.96;92.96;101323.19;2192212;79;21051;-75
2022/11/26 13:58:03;;;;;;;54.58;33.25;;;;;;;4.92;92.93;101322.53;2190704;79;21021;-75
2022/11/26 14:01:35;;;;;;;49.75;30.52;;;;;;;4.88;92.94;101326.31;2187583;79;20990;-83
2022/11/26 14:04:47;;;;;;;52.55;29.63;;;;;;;4.87;92.93;101329.03;2186652;79;21094;-75
2022/11/26 14:07:49;;;;;;;56.45;34.30;;;;;;;4.83;92.89;101328.40;2191828;79;21072;-80
2022/11/26 14:10:51;;;;;;;54.33;33.13;;;;;;;4.82;92.86;101332.46;2157998;80;22343;-77
2022/11/26 14:14:26;;;;;;;48.87;30.35;;;;;;;4.80;92.89;101327.28;2171249;81;20967;-75
2022/11/26 14:17:28;;;;;;;40.95;27.25;;;;;;;4.77;92.84;101328.80;2172970;81;21081;-74
2022/11/26 14:20:32;;;;;;;53.02;33.02;;;;;;;4.75;92.94;101337.73;2174844;81;20963;-75